sensor_id;sensor_type;location;lat;lon;timestamp;P1;durP1;ratioP1;P2;durP2;ratioP2
4323;SDS011;2175;51.018;6.994;2022-08-21T00:02:02;14.83;;;10.60;;
4323;SDS011;2175;51.018;6.994;2022-08-21T00:04:28;18.90;;;11.63;;
4323;SDS011;2175;51.018;6.994;2022-08-21T00:06:54;19.00;;;11.20;;
4323;SDS011;2175;51.018;6.994;2022-08-21T00:09:20;19.13;;;12.67;;
4323;SDS011;2175;51.018;6.994;2022-08-21T00:11:46;14.63;;;11.20;;
4323;SDS011;2175;51.018;6.994;2022-08-21T00:14:13;12.70;;;10.03;;
4323;SDS011;2175;51.018;6.994;2022-08-21T00:16:39;16.70;;;12.07;;
4323;SDS011;2175;51.018;6.994;2022-08-21T00:19:06;14.27;;;11.00;;
4323;SDS011;2175;51.018;6.994;2022-08-21T00:21:33;15.50;;;12.37;;
4323;SDS011;2175;51.018;6.994;2022-08-21T00:23:59;15.57;;;11.40;;
4323;SDS011;2175;51.018;6.994;2022-08-21T00:26:25;15.57;;;11.60;;
4323;SDS011;2175;51.018;6.994;2022-08-21T00:28:52;17.23;;;11.77;;
4323;SDS011;2175;51.018;6.994;2022-08-21T00:31:17;16.33;;;11.10;;
4323;SDS011;2175;51.018;6.994;2022-08-21T00:33:43;18.30;;;10.80;;
4323;SDS011;2175;51.018;6.994;2022-08-21T00:36:10;18.57;;;11.70;;
4323;SDS011;2175;51.018;6.994;2022-08-21T00:38:36;21.50;;;12.70;;
4323;SDS011;2175;51.018;6.994;2022-08-21T00:41:03;19.27;;;12.60;;
4323;SDS011;2175;51.018;6.994;2022-08-21T00:43:31;17.40;;;12.23;;
4323;SDS011;2175;51.018;6.994;2022-08-21T00:45:59;18.57;;;12.10;;
4323;SDS011;2175;51.018;6.994;2022-08-21T00:48:26;16.80;;;12.17;;
4323;SDS011;2175;51.018;6.994;2022-08-21T00:50:53;20.50;;;12.00;;
4323;SDS011;2175;51.018;6.994;2022-08-21T00:53:23;20.63;;;12.07;;
4323;SDS011;2175;51.018;6.994;2022-08-21T00:55:49;20.60;;;12.67;;
4323;SDS011;2175;51.018;6.994;2022-08-21T00:58:16;16.13;;;11.20;;
4323;SDS011;2175;51.018;6.994;2022-08-21T01:00:44;18.73;;;10.97;;
4323;SDS011;2175;51.018;6.994;2022-08-21T01:03:13;21.77;;;12.03;;
4323;SDS011;2175;51.018;6.994;2022-08-21T01:05:41;16.57;;;11.93;;
4323;SDS011;2175;51.018;6.994;2022-08-21T01:08:08;18.53;;;13.37;;
4323;SDS011;2175;51.018;6.994;2022-08-21T01:10:35;20.17;;;12.93;;
4323;SDS011;2175;51.018;6.994;2022-08-21T01:13:02;17.30;;;12.30;;
4323;SDS011;2175;51.018;6.994;2022-08-21T01:15:32;16.53;;;12.33;;
4323;SDS011;2175;51.018;6.994;2022-08-21T01:18:01;19.10;;;11.73;;
4323;SDS011;2175;51.018;6.994;2022-08-21T01:20:28;18.43;;;12.47;;
4323;SDS011;2175;51.018;6.994;2022-08-21T01:22:55;20.40;;;13.03;;
4323;SDS011;2175;51.018;6.994;2022-08-21T01:25:20;18.80;;;12.90;;
4323;SDS011;2175;51.018;6.994;2022-08-21T01:27:46;17.83;;;11.67;;
4323;SDS011;2175;51.018;6.994;2022-08-21T01:30:13;16.00;;;11.83;;
4323;SDS011;2175;51.018;6.994;2022-08-21T01:32:43;19.40;;;13.20;;
4323;SDS011;2175;51.018;6.994;2022-08-21T01:35:09;15.20;;;11.87;;
4323;SDS011;2175;51.018;6.994;2022-08-21T01:37:36;21.60;;;13.27;;
4323;SDS011;2175;51.018;6.994;2022-08-21T01:40:03;17.57;;;12.43;;
4323;SDS011;2175;51.018;6.994;2022-08-21T01:42:30;22.97;;;12.93;;
4323;SDS011;2175;51.018;6.994;2022-08-21T01:44:56;18.17;;;13.07;;
4323;SDS011;2175;51.018;6.994;2022-08-21T01:47:22;18.80;;;11.97;;
4323;SDS011;2175;51.018;6.994;2022-08-21T01:49:48;14.67;;;11.90;;
4323;SDS011;2175;51.018;6.994;2022-08-21T01:52:14;17.23;;;12.63;;
4323;SDS011;2175;51.018;6.994;2022-08-21T01:54:40;14.87;;;12.53;;
4323;SDS011;2175;51.018;6.994;2022-08-21T01:57:06;17.57;;;12.60;;
4323;SDS011;2175;51.018;6.994;2022-08-21T01:59:32;16.40;;;12.00;;
4323;SDS011;2175;51.018;6.994;2022-08-21T02:01:58;15.57;;;11.90;;
4323;SDS011;2175;51.018;6.994;2022-08-21T02:04:24;19.30;;;13.80;;
4323;SDS011;2175;51.018;6.994;2022-08-21T02:06:49;17.40;;;12.30;;
4323;SDS011;2175;51.018;6.994;2022-08-21T02:09:15;15.80;;;11.97;;
4323;SDS011;2175;51.018;6.994;2022-08-21T02:11:41;22.07;;;12.03;;
4323;SDS011;2175;51.018;6.994;2022-08-21T02:14:12;17.43;;;13.17;;
4323;SDS011;2175;51.018;6.994;2022-08-21T02:16:40;17.50;;;12.50;;
4323;SDS011;2175;51.018;6.994;2022-08-21T02:19:07;15.70;;;12.30;;
4323;SDS011;2175;51.018;6.994;2022-08-21T02:21:33;18.80;;;13.03;;
4323;SDS011;2175;51.018;6.994;2022-08-21T02:23:58;16.60;;;12.40;;
4323;SDS011;2175;51.018;6.994;2022-08-21T02:26:24;14.20;;;12.40;;
4323;SDS011;2175;51.018;6.994;2022-08-21T02:28:51;19.17;;;13.77;;
4323;SDS011;2175;51.018;6.994;2022-08-21T02:31:17;20.33;;;12.57;;
4323;SDS011;2175;51.018;6.994;2022-08-21T02:33:42;18.43;;;11.90;;
4323;SDS011;2175;51.018;6.994;2022-08-21T02:36:09;21.93;;;12.70;;
4323;SDS011;2175;51.018;6.994;2022-08-21T02:38:36;17.10;;;11.80;;
4323;SDS011;2175;51.018;6.994;2022-08-21T02:41:04;18.80;;;12.73;;
4323;SDS011;2175;51.018;6.994;2022-08-21T02:43:32;17.70;;;12.50;;
4323;SDS011;2175;51.018;6.994;2022-08-21T02:45:58;17.10;;;13.50;;
4323;SDS011;2175;51.018;6.994;2022-08-21T02:48:26;22.33;;;13.97;;
4323;SDS011;2175;51.018;6.994;2022-08-21T02:50:54;17.77;;;13.07;;
4323;SDS011;2175;51.018;6.994;2022-08-21T02:53:42;20.10;;;12.83;;
4323;SDS011;2175;51.018;6.994;2022-08-21T02:56:09;19.73;;;12.87;;
4323;SDS011;2175;51.018;6.994;2022-08-21T02:58:38;17.17;;;12.57;;
4323;SDS011;2175;51.018;6.994;2022-08-21T03:01:07;16.73;;;12.70;;
4323;SDS011;2175;51.018;6.994;2022-08-21T03:03:34;21.20;;;13.27;;
4323;SDS011;2175;51.018;6.994;2022-08-21T03:06:01;19.07;;;12.63;;
4323;SDS011;2175;51.018;6.994;2022-08-21T03:08:28;17.90;;;12.57;;
4323;SDS011;2175;51.018;6.994;2022-08-21T03:10:54;25.23;;;14.10;;
4323;SDS011;2175;51.018;6.994;2022-08-21T03:13:20;18.13;;;12.97;;
4323;SDS011;2175;51.018;6.994;2022-08-21T03:15:46;22.23;;;13.80;;
4323;SDS011;2175;51.018;6.994;2022-08-21T03:18:13;19.07;;;13.40;;
4323;SDS011;2175;51.018;6.994;2022-08-21T03:20:40;23.83;;;13.93;;
4323;SDS011;2175;51.018;6.994;2022-08-21T03:23:07;16.83;;;12.80;;
4323;SDS011;2175;51.018;6.994;2022-08-21T03:25:33;17.67;;;12.67;;
4323;SDS011;2175;51.018;6.994;2022-08-21T03:28:00;19.03;;;12.90;;
4323;SDS011;2175;51.018;6.994;2022-08-21T03:30:28;16.63;;;12.40;;
4323;SDS011;2175;51.018;6.994;2022-08-21T03:32:56;23.73;;;14.30;;
4323;SDS011;2175;51.018;6.994;2022-08-21T03:35:25;18.40;;;12.67;;
4323;SDS011;2175;51.018;6.994;2022-08-21T03:37:52;16.70;;;12.80;;
4323;SDS011;2175;51.018;6.994;2022-08-21T03:40:19;19.07;;;12.77;;
4323;SDS011;2175;51.018;6.994;2022-08-21T03:42:46;21.50;;;14.03;;
4323;SDS011;2175;51.018;6.994;2022-08-21T03:45:13;19.13;;;14.10;;
4323;SDS011;2175;51.018;6.994;2022-08-21T03:47:53;18.43;;;13.30;;
4323;SDS011;2175;51.018;6.994;2022-08-21T03:50:22;19.50;;;14.10;;
4323;SDS011;2175;51.018;6.994;2022-08-21T03:52:49;20.63;;;13.27;;
4323;SDS011;2175;51.018;6.994;2022-08-21T03:55:14;17.57;;;12.23;;
4323;SDS011;2175;51.018;6.994;2022-08-21T03:57:40;18.77;;;12.57;;
4323;SDS011;2175;51.018;6.994;2022-08-21T04:00:06;28.30;;;14.80;;
4323;SDS011;2175;51.018;6.994;2022-08-21T04:02:34;21.23;;;14.13;;
4323;SDS011;2175;51.018;6.994;2022-08-21T04:05:00;17.23;;;12.83;;
4323;SDS011;2175;51.018;6.994;2022-08-21T04:07:26;17.93;;;13.10;;
4323;SDS011;2175;51.018;6.994;2022-08-21T04:09:52;20.10;;;13.90;;
4323;SDS011;2175;51.018;6.994;2022-08-21T04:12:17;17.20;;;12.80;;
4323;SDS011;2175;51.018;6.994;2022-08-21T04:14:44;17.60;;;12.23;;
4323;SDS011;2175;51.018;6.994;2022-08-21T04:17:09;18.97;;;13.03;;
4323;SDS011;2175;51.018;6.994;2022-08-21T04:19:35;17.73;;;12.00;;
4323;SDS011;2175;51.018;6.994;2022-08-21T04:22:00;18.10;;;12.80;;
4323;SDS011;2175;51.018;6.994;2022-08-21T04:24:26;17.50;;;12.87;;
4323;SDS011;2175;51.018;6.994;2022-08-21T04:26:51;19.70;;;13.00;;
4323;SDS011;2175;51.018;6.994;2022-08-21T04:29:17;17.90;;;13.23;;
4323;SDS011;2175;51.018;6.994;2022-08-21T04:31:44;18.93;;;13.10;;
4323;SDS011;2175;51.018;6.994;2022-08-21T04:34:09;17.30;;;13.10;;
4323;SDS011;2175;51.018;6.994;2022-08-21T04:36:35;21.60;;;13.23;;
4323;SDS011;2175;51.018;6.994;2022-08-21T04:39:01;18.80;;;12.77;;
4323;SDS011;2175;51.018;6.994;2022-08-21T04:41:27;17.50;;;12.80;;
4323;SDS011;2175;51.018;6.994;2022-08-21T04:43:53;20.37;;;12.80;;
4323;SDS011;2175;51.018;6.994;2022-08-21T04:46:20;18.53;;;13.27;;
4323;SDS011;2175;51.018;6.994;2022-08-21T04:48:46;18.07;;;13.07;;
4323;SDS011;2175;51.018;6.994;2022-08-21T04:51:13;18.83;;;12.27;;
4323;SDS011;2175;51.018;6.994;2022-08-21T04:53:46;20.07;;;12.30;;
4323;SDS011;2175;51.018;6.994;2022-08-21T04:56:19;20.23;;;13.37;;
4323;SDS011;2175;51.018;6.994;2022-08-21T04:58:52;19.00;;;12.87;;
4323;SDS011;2175;51.018;6.994;2022-08-21T05:01:21;18.97;;;13.13;;
4323;SDS011;2175;51.018;6.994;2022-08-21T05:03:50;17.93;;;13.27;;
4323;SDS011;2175;51.018;6.994;2022-08-21T05:06:19;19.83;;;12.83;;
4323;SDS011;2175;51.018;6.994;2022-08-21T05:08:46;16.53;;;13.03;;
4323;SDS011;2175;51.018;6.994;2022-08-21T05:11:14;19.67;;;14.33;;
4323;SDS011;2175;51.018;6.994;2022-08-21T05:13:39;16.03;;;12.73;;
4323;SDS011;2175;51.018;6.994;2022-08-21T05:16:08;19.97;;;12.93;;
4323;SDS011;2175;51.018;6.994;2022-08-21T05:18:34;20.73;;;12.77;;
4323;SDS011;2175;51.018;6.994;2022-08-21T05:21:00;16.93;;;12.40;;
4323;SDS011;2175;51.018;6.994;2022-08-21T05:23:25;16.90;;;12.10;;
4323;SDS011;2175;51.018;6.994;2022-08-21T05:25:52;21.57;;;12.80;;
4323;SDS011;2175;51.018;6.994;2022-08-21T05:28:18;18.47;;;12.60;;
4323;SDS011;2175;51.018;6.994;2022-08-21T05:30:44;20.00;;;13.67;;
4323;SDS011;2175;51.018;6.994;2022-08-21T05:33:10;18.10;;;13.40;;
4323;SDS011;2175;51.018;6.994;2022-08-21T05:35:36;17.37;;;12.33;;
4323;SDS011;2175;51.018;6.994;2022-08-21T05:38:03;20.23;;;13.77;;
4323;SDS011;2175;51.018;6.994;2022-08-21T05:40:30;18.33;;;12.77;;
4323;SDS011;2175;51.018;6.994;2022-08-21T05:42:56;17.40;;;13.07;;
4323;SDS011;2175;51.018;6.994;2022-08-21T05:45:22;18.93;;;11.83;;
4323;SDS011;2175;51.018;6.994;2022-08-21T05:47:49;17.53;;;11.90;;
4323;SDS011;2175;51.018;6.994;2022-08-21T05:50:14;22.10;;;12.77;;
4323;SDS011;2175;51.018;6.994;2022-08-21T05:52:40;22.03;;;12.70;;
4323;SDS011;2175;51.018;6.994;2022-08-21T05:55:05;19.57;;;12.87;;
4323;SDS011;2175;51.018;6.994;2022-08-21T05:57:31;19.30;;;12.57;;
4323;SDS011;2175;51.018;6.994;2022-08-21T05:59:57;19.40;;;13.33;;
4323;SDS011;2175;51.018;6.994;2022-08-21T06:02:22;21.87;;;13.70;;
4323;SDS011;2175;51.018;6.994;2022-08-21T06:04:48;20.43;;;13.20;;
4323;SDS011;2175;51.018;6.994;2022-08-21T06:07:14;19.60;;;13.80;;
4323;SDS011;2175;51.018;6.994;2022-08-21T06:09:39;20.67;;;13.13;;
4323;SDS011;2175;51.018;6.994;2022-08-21T06:12:06;18.30;;;13.10;;
4323;SDS011;2175;51.018;6.994;2022-08-21T06:14:33;20.37;;;12.93;;
4323;SDS011;2175;51.018;6.994;2022-08-21T06:17:03;19.77;;;13.93;;
4323;SDS011;2175;51.018;6.994;2022-08-21T06:19:30;20.13;;;14.50;;
4323;SDS011;2175;51.018;6.994;2022-08-21T06:21:55;24.37;;;14.60;;
4323;SDS011;2175;51.018;6.994;2022-08-21T06:24:21;20.60;;;14.17;;
4323;SDS011;2175;51.018;6.994;2022-08-21T06:26:47;16.27;;;13.30;;
4323;SDS011;2175;51.018;6.994;2022-08-21T06:29:13;17.93;;;14.33;;
4323;SDS011;2175;51.018;6.994;2022-08-21T06:31:42;17.53;;;13.27;;
4323;SDS011;2175;51.018;6.994;2022-08-21T06:34:08;19.33;;;12.77;;
4323;SDS011;2175;51.018;6.994;2022-08-21T06:36:34;21.43;;;13.10;;
4323;SDS011;2175;51.018;6.994;2022-08-21T06:39:00;19.77;;;12.80;;
4323;SDS011;2175;51.018;6.994;2022-08-21T06:41:26;22.17;;;12.33;;
4323;SDS011;2175;51.018;6.994;2022-08-21T06:43:52;20.40;;;12.90;;
4323;SDS011;2175;51.018;6.994;2022-08-21T06:46:18;24.63;;;12.67;;
4323;SDS011;2175;51.018;6.994;2022-08-21T06:48:44;19.03;;;12.70;;
4323;SDS011;2175;51.018;6.994;2022-08-21T06:51:10;16.57;;;13.10;;
4323;SDS011;2175;51.018;6.994;2022-08-21T06:53:35;19.67;;;12.60;;
4323;SDS011;2175;51.018;6.994;2022-08-21T06:56:01;19.73;;;13.03;;
4323;SDS011;2175;51.018;6.994;2022-08-21T06:58:27;17.43;;;12.57;;
4323;SDS011;2175;51.018;6.994;2022-08-21T07:00:54;18.53;;;12.10;;
4323;SDS011;2175;51.018;6.994;2022-08-21T07:03:24;18.07;;;13.00;;
4323;SDS011;2175;51.018;6.994;2022-08-21T07:05:55;22.83;;;12.57;;
4323;SDS011;2175;51.018;6.994;2022-08-21T07:08:25;20.33;;;13.50;;
4323;SDS011;2175;51.018;6.994;2022-08-21T07:10:52;17.47;;;12.00;;
4323;SDS011;2175;51.018;6.994;2022-08-21T07:13:20;26.00;;;12.97;;
4323;SDS011;2175;51.018;6.994;2022-08-21T07:15:46;14.90;;;11.40;;
4323;SDS011;2175;51.018;6.994;2022-08-21T07:18:12;19.30;;;11.50;;
4323;SDS011;2175;51.018;6.994;2022-08-21T07:20:38;19.20;;;11.13;;
4323;SDS011;2175;51.018;6.994;2022-08-21T07:23:06;15.80;;;10.20;;
4323;SDS011;2175;51.018;6.994;2022-08-21T07:25:35;18.63;;;10.10;;
4323;SDS011;2175;51.018;6.994;2022-08-21T07:28:01;14.73;;;10.13;;
4323;SDS011;2175;51.018;6.994;2022-08-21T07:30:27;18.80;;;10.17;;
4323;SDS011;2175;51.018;6.994;2022-08-21T07:32:53;15.97;;;8.70;;
4323;SDS011;2175;51.018;6.994;2022-08-21T07:35:20;17.40;;;9.00;;
4323;SDS011;2175;51.018;6.994;2022-08-21T07:37:46;17.70;;;8.20;;
4323;SDS011;2175;51.018;6.994;2022-08-21T07:40:15;16.93;;;9.07;;
4323;SDS011;2175;51.018;6.994;2022-08-21T07:42:42;14.20;;;8.20;;
4323;SDS011;2175;51.018;6.994;2022-08-21T07:45:11;11.60;;;7.03;;
4323;SDS011;2175;51.018;6.994;2022-08-21T07:47:37;16.37;;;7.27;;
4323;SDS011;2175;51.018;6.994;2022-08-21T07:50:04;15.10;;;6.03;;
4323;SDS011;2175;51.018;6.994;2022-08-21T07:52:31;13.23;;;5.37;;
4323;SDS011;2175;51.018;6.994;2022-08-21T07:54:57;8.80;;;4.90;;
4323;SDS011;2175;51.018;6.994;2022-08-21T07:57:23;10.83;;;5.70;;
4323;SDS011;2175;51.018;6.994;2022-08-21T07:59:48;12.67;;;5.10;;
4323;SDS011;2175;51.018;6.994;2022-08-21T08:02:27;16.40;;;5.40;;
4323;SDS011;2175;51.018;6.994;2022-08-21T08:05:01;10.77;;;3.97;;
4323;SDS011;2175;51.018;6.994;2022-08-21T08:07:29;15.80;;;5.23;;
4323;SDS011;2175;51.018;6.994;2022-08-21T08:09:55;10.07;;;3.63;;
4323;SDS011;2175;51.018;6.994;2022-08-21T08:12:20;15.20;;;4.20;;
4323;SDS011;2175;51.018;6.994;2022-08-21T08:14:46;10.30;;;4.17;;
4323;SDS011;2175;51.018;6.994;2022-08-21T08:17:12;12.00;;;4.33;;
4323;SDS011;2175;51.018;6.994;2022-08-21T08:19:38;8.83;;;3.97;;
4323;SDS011;2175;51.018;6.994;2022-08-21T08:22:14;7.63;;;4.27;;
4323;SDS011;2175;51.018;6.994;2022-08-21T08:24:40;8.27;;;3.63;;
4323;SDS011;2175;51.018;6.994;2022-08-21T08:27:06;7.20;;;3.40;;
4323;SDS011;2175;51.018;6.994;2022-08-21T08:34:35;7.90;;;3.27;;
4323;SDS011;2175;51.018;6.994;2022-08-21T08:37:03;8.80;;;3.80;;
4323;SDS011;2175;51.018;6.994;2022-08-21T08:39:32;11.53;;;3.40;;
4323;SDS011;2175;51.018;6.994;2022-08-21T08:42:08;15.70;;;3.70;;
4323;SDS011;2175;51.018;6.994;2022-08-21T08:44:40;8.77;;;3.40;;
4323;SDS011;2175;51.018;6.994;2022-08-21T08:47:10;9.70;;;3.50;;
4323;SDS011;2175;51.018;6.994;2022-08-21T08:52:36;7.97;;;3.10;;
4323;SDS011;2175;51.018;6.994;2022-08-21T08:55:14;6.80;;;2.80;;
4323;SDS011;2175;51.018;6.994;2022-08-21T08:57:43;5.23;;;2.87;;
4323;SDS011;2175;51.018;6.994;2022-08-21T09:00:18;6.57;;;3.10;;
4323;SDS011;2175;51.018;6.994;2022-08-21T09:09:07;6.57;;;2.67;;
4323;SDS011;2175;51.018;6.994;2022-08-21T09:28:38;5.93;;;2.60;;
4323;SDS011;2175;51.018;6.994;2022-08-21T09:31:08;6.23;;;2.97;;
4323;SDS011;2175;51.018;6.994;2022-08-21T09:33:40;9.07;;;3.17;;
4323;SDS011;2175;51.018;6.994;2022-08-21T09:36:06;7.20;;;3.10;;
4323;SDS011;2175;51.018;6.994;2022-08-21T09:38:35;5.90;;;3.03;;
4323;SDS011;2175;51.018;6.994;2022-08-21T09:41:07;7.03;;;3.00;;
4323;SDS011;2175;51.018;6.994;2022-08-21T09:43:34;10.37;;;3.23;;
4323;SDS011;2175;51.018;6.994;2022-08-21T09:48:39;12.83;;;3.43;;
4323;SDS011;2175;51.018;6.994;2022-08-21T09:51:09;10.07;;;3.40;;
4323;SDS011;2175;51.018;6.994;2022-08-21T09:53:38;9.53;;;2.70;;
4323;SDS011;2175;51.018;6.994;2022-08-21T09:56:25;8.27;;;2.73;;
4323;SDS011;2175;51.018;6.994;2022-08-21T09:59:20;8.17;;;3.20;;
4323;SDS011;2175;51.018;6.994;2022-08-21T10:01:53;7.43;;;2.63;;
4323;SDS011;2175;51.018;6.994;2022-08-21T10:04:26;5.97;;;2.80;;
4323;SDS011;2175;51.018;6.994;2022-08-21T10:06:54;7.73;;;2.73;;
4323;SDS011;2175;51.018;6.994;2022-08-21T10:09:30;10.73;;;2.93;;
4323;SDS011;2175;51.018;6.994;2022-08-21T10:11:58;9.30;;;3.27;;
4323;SDS011;2175;51.018;6.994;2022-08-21T10:20:04;5.80;;;2.60;;
4323;SDS011;2175;51.018;6.994;2022-08-21T10:22:47;9.37;;;2.47;;
4323;SDS011;2175;51.018;6.994;2022-08-21T10:28:24;12.43;;;3.00;;
4323;SDS011;2175;51.018;6.994;2022-08-21T10:31:10;7.57;;;2.60;;
4323;SDS011;2175;51.018;6.994;2022-08-21T10:36:51;7.37;;;2.90;;
4323;SDS011;2175;51.018;6.994;2022-08-21T10:42:38;9.10;;;2.60;;
4323;SDS011;2175;51.018;6.994;2022-08-21T10:48:06;5.97;;;2.53;;
4323;SDS011;2175;51.018;6.994;2022-08-21T10:50:42;6.20;;;2.20;;
4323;SDS011;2175;51.018;6.994;2022-08-21T10:56:26;6.60;;;2.90;;
4323;SDS011;2175;51.018;6.994;2022-08-21T10:59:07;8.23;;;3.40;;
4323;SDS011;2175;51.018;6.994;2022-08-21T11:01:50;12.43;;;4.30;;
4323;SDS011;2175;51.018;6.994;2022-08-21T11:04:28;8.93;;;3.27;;
4323;SDS011;2175;51.018;6.994;2022-08-21T11:07:06;6.07;;;2.53;;
4323;SDS011;2175;51.018;6.994;2022-08-21T11:09:43;5.30;;;2.73;;
4323;SDS011;2175;51.018;6.994;2022-08-21T11:17:30;7.50;;;2.50;;
4323;SDS011;2175;51.018;6.994;2022-08-21T11:20:08;6.70;;;2.50;;
4323;SDS011;2175;51.018;6.994;2022-08-21T11:22:49;11.70;;;2.80;;
4323;SDS011;2175;51.018;6.994;2022-08-21T11:25:26;11.43;;;3.80;;
4323;SDS011;2175;51.018;6.994;2022-08-21T11:28:02;11.93;;;3.53;;
4323;SDS011;2175;51.018;6.994;2022-08-21T11:36:46;8.90;;;4.00;;
4323;SDS011;2175;51.018;6.994;2022-08-21T11:39:44;7.60;;;3.50;;
4323;SDS011;2175;51.018;6.994;2022-08-21T11:42:49;9.10;;;3.87;;
4323;SDS011;2175;51.018;6.994;2022-08-21T11:48:01;9.03;;;3.63;;
4323;SDS011;2175;51.018;6.994;2022-08-21T11:50:39;9.60;;;3.37;;
4323;SDS011;2175;51.018;6.994;2022-08-21T11:58:11;6.93;;;3.03;;
4323;SDS011;2175;51.018;6.994;2022-08-21T12:04:00;10.27;;;3.50;;
4323;SDS011;2175;51.018;6.994;2022-08-21T12:06:38;8.43;;;3.10;;
4323;SDS011;2175;51.018;6.994;2022-08-21T12:09:06;6.30;;;2.87;;
4323;SDS011;2175;51.018;6.994;2022-08-21T12:15:04;7.20;;;2.90;;
4323;SDS011;2175;51.018;6.994;2022-08-21T12:17:57;4.90;;;2.20;;
4323;SDS011;2175;51.018;6.994;2022-08-21T12:20:27;5.83;;;2.67;;
4323;SDS011;2175;51.018;6.994;2022-08-21T12:28:25;8.87;;;2.93;;
4323;SDS011;2175;51.018;6.994;2022-08-21T12:30:53;10.77;;;3.43;;
4323;SDS011;2175;51.018;6.994;2022-08-21T12:36:15;6.07;;;2.57;;
4323;SDS011;2175;51.018;6.994;2022-08-21T12:41:41;8.20;;;2.77;;
4323;SDS011;2175;51.018;6.994;2022-08-21T12:44:16;6.33;;;3.00;;
4323;SDS011;2175;51.018;6.994;2022-08-21T12:46:54;8.20;;;3.20;;
4323;SDS011;2175;51.018;6.994;2022-08-21T12:49:31;9.43;;;3.30;;
4323;SDS011;2175;51.018;6.994;2022-08-21T12:52:01;6.80;;;2.77;;
4323;SDS011;2175;51.018;6.994;2022-08-21T12:54:40;6.93;;;2.80;;
4323;SDS011;2175;51.018;6.994;2022-08-21T12:57:07;12.53;;;4.33;;
4323;SDS011;2175;51.018;6.994;2022-08-21T12:59:41;11.13;;;4.20;;
4323;SDS011;2175;51.018;6.994;2022-08-21T13:02:18;11.00;;;3.43;;
4323;SDS011;2175;51.018;6.994;2022-08-21T13:04:45;13.57;;;4.13;;
4323;SDS011;2175;51.018;6.994;2022-08-21T13:07:13;5.23;;;2.63;;
4323;SDS011;2175;51.018;6.994;2022-08-21T13:09:46;6.23;;;2.73;;
4323;SDS011;2175;51.018;6.994;2022-08-21T13:12:15;8.77;;;2.80;;
4323;SDS011;2175;51.018;6.994;2022-08-21T13:14:44;7.17;;;2.57;;
4323;SDS011;2175;51.018;6.994;2022-08-21T13:17:12;8.33;;;3.20;;
4323;SDS011;2175;51.018;6.994;2022-08-21T13:19:40;7.53;;;2.60;;
4323;SDS011;2175;51.018;6.994;2022-08-21T13:22:12;10.77;;;3.27;;
4323;SDS011;2175;51.018;6.994;2022-08-21T13:24:38;4.87;;;2.40;;
4323;SDS011;2175;51.018;6.994;2022-08-21T13:27:15;13.03;;;4.10;;
4323;SDS011;2175;51.018;6.994;2022-08-21T13:30:00;11.33;;;3.87;;
4323;SDS011;2175;51.018;6.994;2022-08-21T13:32:30;5.57;;;3.00;;
4323;SDS011;2175;51.018;6.994;2022-08-21T13:34:59;6.43;;;2.43;;
4323;SDS011;2175;51.018;6.994;2022-08-21T13:37:32;6.97;;;2.70;;
4323;SDS011;2175;51.018;6.994;2022-08-21T13:39:58;8.60;;;3.57;;
4323;SDS011;2175;51.018;6.994;2022-08-21T13:42:23;8.53;;;4.60;;
4323;SDS011;2175;51.018;6.994;2022-08-21T13:44:50;12.50;;;3.90;;
4323;SDS011;2175;51.018;6.994;2022-08-21T13:47:19;10.10;;;3.63;;
4323;SDS011;2175;51.018;6.994;2022-08-21T13:49:46;11.03;;;3.33;;
4323;SDS011;2175;51.018;6.994;2022-08-21T13:52:15;7.80;;;2.80;;
4323;SDS011;2175;51.018;6.994;2022-08-21T13:54:42;6.57;;;2.73;;
4323;SDS011;2175;51.018;6.994;2022-08-21T13:57:19;6.93;;;3.10;;
4323;SDS011;2175;51.018;6.994;2022-08-21T13:59:50;10.23;;;3.73;;
4323;SDS011;2175;51.018;6.994;2022-08-21T14:02:18;6.73;;;2.90;;
4323;SDS011;2175;51.018;6.994;2022-08-21T14:04:51;8.10;;;2.90;;
4323;SDS011;2175;51.018;6.994;2022-08-21T14:07:26;7.90;;;3.00;;
4323;SDS011;2175;51.018;6.994;2022-08-21T14:09:56;6.37;;;2.90;;
4323;SDS011;2175;51.018;6.994;2022-08-21T14:13:23;7.70;;;3.03;;
4323;SDS011;2175;51.018;6.994;2022-08-21T14:15:33;5.57;;;2.50;;
4323;SDS011;2175;51.018;6.994;2022-08-21T14:18:07;6.50;;;2.97;;
4323;SDS011;2175;51.018;6.994;2022-08-21T14:20:39;10.83;;;3.40;;
4323;SDS011;2175;51.018;6.994;2022-08-21T14:23:05;8.80;;;3.83;;
4323;SDS011;2175;51.018;6.994;2022-08-21T14:25:41;7.70;;;3.33;;
4323;SDS011;2175;51.018;6.994;2022-08-21T14:28:15;7.57;;;3.63;;
4323;SDS011;2175;51.018;6.994;2022-08-21T14:30:50;10.57;;;3.80;;
4323;SDS011;2175;51.018;6.994;2022-08-21T14:33:23;5.70;;;2.57;;
4323;SDS011;2175;51.018;6.994;2022-08-21T14:35:52;8.70;;;3.40;;
4323;SDS011;2175;51.018;6.994;2022-08-21T14:38:19;8.33;;;3.60;;
4323;SDS011;2175;51.018;6.994;2022-08-21T14:40:48;9.27;;;3.10;;
4323;SDS011;2175;51.018;6.994;2022-08-21T14:43:16;10.50;;;3.17;;
4323;SDS011;2175;51.018;6.994;2022-08-21T14:45:44;11.07;;;3.97;;
4323;SDS011;2175;51.018;6.994;2022-08-21T14:48:10;8.50;;;3.13;;
4323;SDS011;2175;51.018;6.994;2022-08-21T14:50:36;8.13;;;2.90;;
4323;SDS011;2175;51.018;6.994;2022-08-21T14:53:02;6.53;;;2.40;;
4323;SDS011;2175;51.018;6.994;2022-08-21T14:55:29;8.20;;;2.50;;
4323;SDS011;2175;51.018;6.994;2022-08-21T14:57:55;9.50;;;2.93;;
4323;SDS011;2175;51.018;6.994;2022-08-21T15:00:23;9.40;;;2.30;;
4323;SDS011;2175;51.018;6.994;2022-08-21T15:02:50;7.10;;;2.43;;
4323;SDS011;2175;51.018;6.994;2022-08-21T15:05:16;8.50;;;2.90;;
4323;SDS011;2175;51.018;6.994;2022-08-21T15:07:42;7.00;;;3.20;;
4323;SDS011;2175;51.018;6.994;2022-08-21T15:10:09;5.17;;;2.87;;
4323;SDS011;2175;51.018;6.994;2022-08-21T15:12:35;11.47;;;3.03;;
4323;SDS011;2175;51.018;6.994;2022-08-21T15:15:01;9.00;;;3.40;;
4323;SDS011;2175;51.018;6.994;2022-08-21T15:17:27;8.70;;;2.90;;
4323;SDS011;2175;51.018;6.994;2022-08-21T15:19:52;9.47;;;3.40;;
4323;SDS011;2175;51.018;6.994;2022-08-21T15:22:18;5.10;;;2.87;;
4323;SDS011;2175;51.018;6.994;2022-08-21T15:24:44;5.00;;;2.27;;
4323;SDS011;2175;51.018;6.994;2022-08-21T15:27:09;8.00;;;3.20;;
4323;SDS011;2175;51.018;6.994;2022-08-21T15:29:37;7.80;;;2.50;;
4323;SDS011;2175;51.018;6.994;2022-08-21T15:32:14;6.33;;;2.50;;
4323;SDS011;2175;51.018;6.994;2022-08-21T15:34:47;8.63;;;3.43;;
4323;SDS011;2175;51.018;6.994;2022-08-21T15:37:13;13.23;;;4.43;;
4323;SDS011;2175;51.018;6.994;2022-08-21T15:39:39;9.90;;;3.90;;
4323;SDS011;2175;51.018;6.994;2022-08-21T15:42:04;8.70;;;3.43;;
4323;SDS011;2175;51.018;6.994;2022-08-21T15:44:31;6.37;;;2.60;;
4323;SDS011;2175;51.018;6.994;2022-08-21T15:46:58;12.70;;;4.47;;
4323;SDS011;2175;51.018;6.994;2022-08-21T15:49:24;10.80;;;4.70;;
4323;SDS011;2175;51.018;6.994;2022-08-21T15:51:50;16.87;;;5.20;;
4323;SDS011;2175;51.018;6.994;2022-08-21T15:54:15;20.07;;;4.90;;
4323;SDS011;2175;51.018;6.994;2022-08-21T15:56:43;18.00;;;4.60;;
4323;SDS011;2175;51.018;6.994;2022-08-21T15:59:13;7.87;;;3.60;;
4323;SDS011;2175;51.018;6.994;2022-08-21T16:01:42;5.70;;;2.53;;
4323;SDS011;2175;51.018;6.994;2022-08-21T16:04:08;12.50;;;3.63;;
4323;SDS011;2175;51.018;6.994;2022-08-21T16:06:35;10.00;;;3.23;;
4323;SDS011;2175;51.018;6.994;2022-08-21T16:09:01;9.70;;;3.17;;
4323;SDS011;2175;51.018;6.994;2022-08-21T16:11:26;4.60;;;2.40;;
4323;SDS011;2175;51.018;6.994;2022-08-21T16:13:53;8.23;;;2.97;;
4323;SDS011;2175;51.018;6.994;2022-08-21T16:16:20;8.43;;;3.03;;
4323;SDS011;2175;51.018;6.994;2022-08-21T16:18:47;7.17;;;3.80;;
4323;SDS011;2175;51.018;6.994;2022-08-21T16:21:15;15.87;;;5.10;;
4323;SDS011;2175;51.018;6.994;2022-08-21T16:23:41;7.70;;;3.17;;
4323;SDS011;2175;51.018;6.994;2022-08-21T16:26:08;5.83;;;2.90;;
4323;SDS011;2175;51.018;6.994;2022-08-21T16:28:36;9.93;;;3.30;;
4323;SDS011;2175;51.018;6.994;2022-08-21T16:31:04;9.00;;;3.90;;
4323;SDS011;2175;51.018;6.994;2022-08-21T16:33:38;12.67;;;4.53;;
4323;SDS011;2175;51.018;6.994;2022-08-21T16:36:06;7.77;;;3.40;;
4323;SDS011;2175;51.018;6.994;2022-08-21T16:38:32;13.47;;;4.13;;
4323;SDS011;2175;51.018;6.994;2022-08-21T16:41:01;8.50;;;3.57;;
4323;SDS011;2175;51.018;6.994;2022-08-21T16:43:32;6.80;;;2.87;;